sensor_id;sensor_type;location;lat;lon;timestamp;P1;durP1;ratioP1;P2;durP2;ratioP2
39102;SDS011;24847;48.218;16.414;2023-09-08T00:02:51;4.93;;;4.32;;
39102;SDS011;24847;48.218;16.414;2023-09-08T00:07:53;6.32;;;4.13;;
39102;SDS011;24847;48.218;16.414;2023-09-08T00:12:57;7.20;;;4.35;;
39102;SDS011;24847;48.218;16.414;2023-09-08T00:17:59;7.78;;;4.55;;
39102;SDS011;24847;48.218;16.414;2023-09-08T00:23:01;4.85;;;4.28;;
39102;SDS011;24847;48.218;16.414;2023-09-08T00:28:05;5.63;;;4.10;;
39102;SDS011;24847;48.218;16.414;2023-09-08T00:33:08;9.65;;;4.65;;
39102;SDS011;24847;48.218;16.414;2023-09-08T00:38:11;7.78;;;4.28;;
39102;SDS011;24847;48.218;16.414;2023-09-08T00:43:16;5.93;;;4.28;;
39102;SDS011;24847;48.218;16.414;2023-09-08T00:48:18;6.68;;;4.22;;
39102;SDS011;24847;48.218;16.414;2023-09-08T00:53:21;7.82;;;4.15;;
39102;SDS011;24847;48.218;16.414;2023-09-08T00:58:25;5.35;;;4.13;;
39102;SDS011;24847;48.218;16.414;2023-09-08T01:03:27;6.05;;;4.25;;
39102;SDS011;24847;48.218;16.414;2023-09-08T01:08:31;5.95;;;4.40;;
39102;SDS011;24847;48.218;16.414;2023-09-08T01:13:35;5.63;;;4.53;;
39102;SDS011;24847;48.218;16.414;2023-09-08T01:18:37;7.38;;;4.63;;
39102;SDS011;24847;48.218;16.414;2023-09-08T01:23:45;7.82;;;4.70;;
39102;SDS011;24847;48.218;16.414;2023-09-08T01:29:01;7.45;;;4.50;;
39102;SDS011;24847;48.218;16.414;2023-09-08T01:34:05;5.20;;;4.40;;
39102;SDS011;24847;48.218;16.414;2023-09-08T01:39:08;6.30;;;4.63;;
39102;SDS011;24847;48.218;16.414;2023-09-08T01:44:11;6.10;;;4.55;;
39102;SDS011;24847;48.218;16.414;2023-09-08T01:49:13;5.38;;;4.28;;
39102;SDS011;24847;48.218;16.414;2023-09-08T01:54:16;6.15;;;3.60;;
39102;SDS011;24847;48.218;16.414;2023-09-08T01:59:19;6.75;;;4.68;;
39102;SDS011;24847;48.218;16.414;2023-09-08T02:04:22;5.70;;;4.32;;
39102;SDS011;24847;48.218;16.414;2023-09-08T02:09:30;5.90;;;3.92;;
39102;SDS011;24847;48.218;16.414;2023-09-08T02:14:34;4.97;;;4.47;;
39102;SDS011;24847;48.218;16.414;2023-09-08T02:19:37;7.32;;;4.45;;
39102;SDS011;24847;48.218;16.414;2023-09-08T02:24:40;5.65;;;4.10;;
39102;SDS011;24847;48.218;16.414;2023-09-08T02:29:44;6.95;;;4.30;;
39102;SDS011;24847;48.218;16.414;2023-09-08T02:34:46;8.35;;;4.60;;
39102;SDS011;24847;48.218;16.414;2023-09-08T02:39:49;5.20;;;4.13;;
39102;SDS011;24847;48.218;16.414;2023-09-08T02:44:53;6.35;;;4.78;;
39102;SDS011;24847;48.218;16.414;2023-09-08T02:49:55;6.03;;;4.80;;
39102;SDS011;24847;48.218;16.414;2023-09-08T02:54:58;7.07;;;4.72;;
39102;SDS011;24847;48.218;16.414;2023-09-08T03:00:01;4.97;;;4.45;;
39102;SDS011;24847;48.218;16.414;2023-09-08T03:05:05;6.72;;;4.57;;
39102;SDS011;24847;48.218;16.414;2023-09-08T03:10:08;5.10;;;4.53;;
39102;SDS011;24847;48.218;16.414;2023-09-08T03:15:15;4.70;;;4.28;;
39102;SDS011;24847;48.218;16.414;2023-09-08T03:20:17;5.72;;;4.20;;
39102;SDS011;24847;48.218;16.414;2023-09-08T03:25:20;4.50;;;4.10;;
39102;SDS011;24847;48.218;16.414;2023-09-08T03:30:26;4.72;;;4.28;;
39102;SDS011;24847;48.218;16.414;2023-09-08T03:35:28;4.57;;;4.00;;
39102;SDS011;24847;48.218;16.414;2023-09-08T03:40:30;5.10;;;4.03;;
39102;SDS011;24847;48.218;16.414;2023-09-08T03:45:34;5.97;;;4.05;;
39102;SDS011;24847;48.218;16.414;2023-09-08T03:50:36;5.95;;;4.15;;
39102;SDS011;24847;48.218;16.414;2023-09-08T03:55:38;4.57;;;3.75;;
39102;SDS011;24847;48.218;16.414;2023-09-08T04:00:42;4.63;;;4.10;;
39102;SDS011;24847;48.218;16.414;2023-09-08T04:05:45;4.68;;;3.60;;
39102;SDS011;24847;48.218;16.414;2023-09-08T04:10:47;6.05;;;3.92;;
39102;SDS011;24847;48.218;16.414;2023-09-08T04:15:51;5.40;;;4.00;;
39102;SDS011;24847;48.218;16.414;2023-09-08T04:20:53;4.25;;;3.75;;
39102;SDS011;24847;48.218;16.414;2023-09-08T04:25:55;4.57;;;4.05;;
39102;SDS011;24847;48.218;16.414;2023-09-08T04:30:59;5.05;;;4.55;;
39102;SDS011;24847;48.218;16.414;2023-09-08T04:36:01;5.13;;;4.63;;
39102;SDS011;24847;48.218;16.414;2023-09-08T04:41:03;6.55;;;4.70;;
39102;SDS011;24847;48.218;16.414;2023-09-08T04:46:07;5.75;;;4.20;;
39102;SDS011;24847;48.218;16.414;2023-09-08T04:51:09;4.78;;;4.38;;
39102;SDS011;24847;48.218;16.414;2023-09-08T04:56:11;5.15;;;4.20;;
39102;SDS011;24847;48.218;16.414;2023-09-08T05:01:16;5.07;;;4.57;;
39102;SDS011;24847;48.218;16.414;2023-09-08T05:06:18;5.68;;;4.22;;
39102;SDS011;24847;48.218;16.414;2023-09-08T05:11:20;4.55;;;4.07;;
39102;SDS011;24847;48.218;16.414;2023-09-08T05:16:23;5.00;;;4.43;;
39102;SDS011;24847;48.218;16.414;2023-09-08T05:21:37;5.60;;;4.65;;
39102;SDS011;24847;48.218;16.414;2023-09-08T05:26:41;6.07;;;4.75;;
39102;SDS011;24847;48.218;16.414;2023-09-08T05:31:45;5.15;;;4.38;;
39102;SDS011;24847;48.218;16.414;2023-09-08T05:36:47;5.07;;;4.57;;
39102;SDS011;24847;48.218;16.414;2023-09-08T05:41:49;5.68;;;4.70;;
39102;SDS011;24847;48.218;16.414;2023-09-08T05:46:53;4.50;;;4.00;;
39102;SDS011;24847;48.218;16.414;2023-09-08T05:51:55;5.10;;;4.15;;
39102;SDS011;24847;48.218;16.414;2023-09-08T05:56:57;5.20;;;4.47;;
39102;SDS011;24847;48.218;16.414;2023-09-08T06:02:01;6.85;;;4.72;;
39102;SDS011;24847;48.218;16.414;2023-09-08T06:07:04;7.53;;;5.43;;
39102;SDS011;24847;48.218;16.414;2023-09-08T06:12:06;6.25;;;5.65;;
39102;SDS011;24847;48.218;16.414;2023-09-08T06:17:10;6.43;;;5.78;;
39102;SDS011;24847;48.218;16.414;2023-09-08T06:22:13;7.57;;;5.97;;
39102;SDS011;24847;48.218;16.414;2023-09-08T06:27:16;6.43;;;5.75;;
39102;SDS011;24847;48.218;16.414;2023-09-08T06:32:19;7.55;;;5.43;;
39102;SDS011;24847;48.218;16.414;2023-09-08T06:37:22;6.22;;;5.60;;
39102;SDS011;24847;48.218;16.414;2023-09-08T06:42:24;6.68;;;5.95;;
39102;SDS011;24847;48.218;16.414;2023-09-08T06:47:27;7.65;;;5.78;;
39102;SDS011;24847;48.218;16.414;2023-09-08T06:52:30;10.38;;;6.13;;
39102;SDS011;24847;48.218;16.414;2023-09-08T06:57:32;5.97;;;5.30;;
39102;SDS011;24847;48.218;16.414;2023-09-08T07:02:36;6.32;;;4.88;;
39102;SDS011;24847;48.218;16.414;2023-09-08T07:07:38;5.15;;;4.65;;
39102;SDS011;24847;48.218;16.414;2023-09-08T07:12:44;5.20;;;4.70;;
39102;SDS011;24847;48.218;16.414;2023-09-08T07:17:48;5.57;;;5.07;;
39102;SDS011;24847;48.218;16.414;2023-09-08T07:22:51;5.80;;;5.28;;
39102;SDS011;24847;48.218;16.414;2023-09-08T07:27:53;5.53;;;4.60;;
39102;SDS011;24847;48.218;16.414;2023-09-08T07:32:57;5.15;;;4.43;;
39102;SDS011;24847;48.218;16.414;2023-09-08T07:37:59;4.95;;;4.45;;
39102;SDS011;24847;48.218;16.414;2023-09-08T07:43:01;4.85;;;4.18;;
39102;SDS011;24847;48.218;16.414;2023-09-08T07:48:06;4.78;;;4.30;;
39102;SDS011;24847;48.218;16.414;2023-09-08T07:53:08;4.50;;;4.03;;
39102;SDS011;24847;48.218;16.414;2023-09-08T07:58:13;5.82;;;3.78;;
39102;SDS011;24847;48.218;16.414;2023-09-08T08:03:17;4.80;;;4.07;;
39102;SDS011;24847;48.218;16.414;2023-09-08T08:08:19;4.45;;;4.03;;
39102;SDS011;24847;48.218;16.414;2023-09-08T08:13:25;5.78;;;4.18;;
39102;SDS011;24847;48.218;16.414;2023-09-08T08:18:28;4.18;;;3.78;;
39102;SDS011;24847;48.218;16.414;2023-09-08T08:23:31;5.25;;;4.00;;
39102;SDS011;24847;48.218;16.414;2023-09-08T08:28:34;6.25;;;4.05;;
39102;SDS011;24847;48.218;16.414;2023-09-08T08:33:37;4.22;;;3.83;;
39102;SDS011;24847;48.218;16.414;2023-09-08T08:38:40;3.92;;;3.53;;
39102;SDS011;24847;48.218;16.414;2023-09-08T08:43:42;3.97;;;3.58;;
39102;SDS011;24847;48.218;16.414;2023-09-08T08:48:47;4.60;;;3.40;;
39102;SDS011;24847;48.218;16.414;2023-09-08T08:53:52;3.80;;;3.50;;
39102;SDS011;24847;48.218;16.414;2023-09-08T08:58:55;3.53;;;3.22;;
39102;SDS011;24847;48.218;16.414;2023-09-08T09:04:00;3.40;;;3.10;;
39102;SDS011;24847;48.218;16.414;2023-09-08T09:09:06;4.35;;;3.47;;
39102;SDS011;24847;48.218;16.414;2023-09-08T09:14:12;3.75;;;3.35;;
39102;SDS011;24847;48.218;16.414;2023-09-08T09:19:19;3.47;;;3.17;;
39102;SDS011;24847;48.218;16.414;2023-09-08T09:24:32;3.13;;;2.83;;
39102;SDS011;24847;48.218;16.414;2023-09-08T09:29:43;4.32;;;2.97;;
39102;SDS011;24847;48.218;16.414;2023-09-08T09:34:49;4.00;;;3.60;;
39102;SDS011;24847;48.218;16.414;2023-09-08T09:39:54;4.72;;;3.30;;
39102;SDS011;24847;48.218;16.414;2023-09-08T09:44:56;4.32;;;3.08;;
39102;SDS011;24847;48.218;16.414;2023-09-08T09:50:04;3.47;;;3.17;;
39102;SDS011;24847;48.218;16.414;2023-09-08T09:55:07;3.78;;;3.05;;
39102;SDS011;24847;48.218;16.414;2023-09-08T10:00:10;3.53;;;3.10;;
39102;SDS011;24847;48.218;16.414;2023-09-08T10:05:16;5.10;;;2.92;;
39102;SDS011;24847;48.218;16.414;2023-09-08T10:10:20;3.47;;;3.08;;
39102;SDS011;24847;48.218;16.414;2023-09-08T10:15:23;5.07;;;2.88;;
39102;SDS011;24847;48.218;16.414;2023-09-08T10:20:27;3.45;;;3.15;;
39102;SDS011;24847;48.218;16.414;2023-09-08T10:25:31;3.33;;;3.03;;
39102;SDS011;24847;48.218;16.414;2023-09-08T10:30:39;3.27;;;2.97;;
39102;SDS011;24847;48.218;16.414;2023-09-08T10:35:44;3.65;;;3.13;;
39102;SDS011;24847;48.218;16.414;2023-09-08T10:40:47;3.17;;;2.70;;
39102;SDS011;24847;48.218;16.414;2023-09-08T10:45:49;3.58;;;3.10;;
39102;SDS011;24847;48.218;16.414;2023-09-08T10:50:53;3.90;;;3.28;;
39102;SDS011;24847;48.218;16.414;2023-09-08T10:55:55;3.17;;;2.83;;
39102;SDS011;24847;48.218;16.414;2023-09-08T11:00:59;4.28;;;3.20;;
39102;SDS011;24847;48.218;16.414;2023-09-08T11:06:05;3.22;;;2.92;;
39102;SDS011;24847;48.218;16.414;2023-09-08T11:11:09;3.17;;;2.88;;
39102;SDS011;24847;48.218;16.414;2023-09-08T11:16:14;3.20;;;2.90;;
39102;SDS011;24847;48.218;16.414;2023-09-08T11:21:22;3.40;;;3.10;;
39102;SDS011;24847;48.218;16.414;2023-09-08T11:26:25;3.75;;;2.65;;
39102;SDS011;24847;48.218;16.414;2023-09-08T11:31:28;3.42;;;2.95;;
39102;SDS011;24847;48.218;16.414;2023-09-08T11:36:32;6.13;;;2.88;;
39102;SDS011;24847;48.218;16.414;2023-09-08T11:41:36;3.40;;;2.63;;
39102;SDS011;24847;48.218;16.414;2023-09-08T11:46:39;3.30;;;3.00;;
39102;SDS011;24847;48.218;16.414;2023-09-08T11:51:44;3.45;;;2.75;;
39102;SDS011;24847;48.218;16.414;2023-09-08T11:56:48;3.08;;;2.78;;
39102;SDS011;24847;48.218;16.414;2023-09-08T12:01:50;3.20;;;2.88;;
39102;SDS011;24847;48.218;16.414;2023-09-08T12:06:54;4.78;;;3.20;;
39102;SDS011;24847;48.218;16.414;2023-09-08T12:11:57;3.30;;;3.00;;
39102;SDS011;24847;48.218;16.414;2023-09-08T12:17:07;3.10;;;2.45;;
39102;SDS011;24847;48.218;16.414;2023-09-08T12:22:11;3.70;;;3.10;;
39102;SDS011;24847;48.218;16.414;2023-09-08T12:27:18;2.90;;;2.70;;
39102;SDS011;24847;48.218;16.414;2023-09-08T12:32:21;2.67;;;2.47;;
39102;SDS011;24847;48.218;16.414;2023-09-08T12:37:25;3.67;;;2.78;;
39102;SDS011;24847;48.218;16.414;2023-09-08T12:42:29;3.10;;;2.75;;
39102;SDS011;24847;48.218;16.414;2023-09-08T12:47:31;2.97;;;2.67;;
39102;SDS011;24847;48.218;16.414;2023-09-08T12:52:36;3.42;;;2.88;;
39102;SDS011;24847;48.218;16.414;2023-09-08T12:57:39;3.00;;;2.65;;
39102;SDS011;24847;48.218;16.414;2023-09-08T13:02:41;2.78;;;2.58;;
39102;SDS011;24847;48.218;16.414;2023-09-08T13:07:47;2.63;;;2.42;;
39102;SDS011;24847;48.218;16.414;2023-09-08T13:12:49;3.17;;;2.40;;
39102;SDS011;24847;48.218;16.414;2023-09-08T13:17:52;2.90;;;2.55;;
39102;SDS011;24847;48.218;16.414;2023-09-08T13:22:57;3.88;;;2.50;;
39102;SDS011;24847;48.218;16.414;2023-09-08T13:27:59;3.03;;;2.72;;
39102;SDS011;24847;48.218;16.414;2023-09-08T13:33:02;2.97;;;2.67;;
39102;SDS011;24847;48.218;16.414;2023-09-08T13:38:07;2.95;;;2.70;;
39102;SDS011;24847;48.218;16.414;2023-09-08T13:43:10;5.70;;;3.00;;
39102;SDS011;24847;48.218;16.414;2023-09-08T13:48:13;3.00;;;2.70;;
39102;SDS011;24847;48.218;16.414;2023-09-08T13:53:17;3.40;;;2.45;;
39102;SDS011;24847;48.218;16.414;2023-09-08T13:58:19;3.50;;;2.53;;
39102;SDS011;24847;48.218;16.414;2023-09-08T14:03:22;5.43;;;2.83;;
39102;SDS011;24847;48.218;16.414;2023-09-08T14:08:27;3.47;;;2.40;;
39102;SDS011;24847;48.218;16.414;2023-09-08T14:13:30;2.90;;;2.60;;
39102;SDS011;24847;48.218;16.414;2023-09-08T14:18:34;3.13;;;2.78;;
39102;SDS011;24847;48.218;16.414;2023-09-08T14:23:38;3.90;;;2.80;;
39102;SDS011;24847;48.218;16.414;2023-09-08T14:28:42;4.70;;;2.67;;
39102;SDS011;24847;48.218;16.414;2023-09-08T14:33:45;3.40;;;2.60;;
39102;SDS011;24847;48.218;16.414;2023-09-08T14:38:50;2.75;;;2.55;;
39102;SDS011;24847;48.218;16.414;2023-09-08T14:43:55;2.75;;;2.33;;
39102;SDS011;24847;48.218;16.414;2023-09-08T14:48:58;3.10;;;2.67;;
39102;SDS011;24847;48.218;16.414;2023-09-08T14:54:04;3.10;;;2.80;;
39102;SDS011;24847;48.218;16.414;2023-09-08T14:59:08;4.30;;;2.53;;
39102;SDS011;24847;48.218;16.414;2023-09-08T15:04:11;2.63;;;2.40;;
39102;SDS011;24847;48.218;16.414;2023-09-08T15:09:15;3.58;;;2.45;;
39102;SDS011;24847;48.218;16.414;2023-09-08T15:14:18;3.15;;;2.85;;
39102;SDS011;24847;48.218;16.414;2023-09-08T15:19:21;3.78;;;2.63;;
39102;SDS011;24847;48.218;16.414;2023-09-08T15:24:26;6.97;;;2.72;;
39102;SDS011;24847;48.218;16.414;2023-09-08T15:29:29;2.88;;;2.63;;
39102;SDS011;24847;48.218;16.414;2023-09-08T15:34:36;2.63;;;2.42;;
39102;SDS011;24847;48.218;16.414;2023-09-08T15:39:41;4.22;;;2.97;;
39102;SDS011;24847;48.218;16.414;2023-09-08T15:44:45;2.70;;;2.50;;
39102;SDS011;24847;48.218;16.414;2023-09-08T15:49:49;3.40;;;2.97;;
39102;SDS011;24847;48.218;16.414;2023-09-08T15:54:54;3.33;;;2.53;;
39102;SDS011;24847;48.218;16.414;2023-09-08T15:59:57;3.30;;;2.50;;
39102;SDS011;24847;48.218;16.414;2023-09-08T16:04:59;3.00;;;2.42;;
39102;SDS011;24847;48.218;16.414;2023-09-08T16:10:05;6.13;;;2.80;;
39102;SDS011;24847;48.218;16.414;2023-09-08T16:15:13;4.72;;;2.67;;
39102;SDS011;24847;48.218;16.414;2023-09-08T16:20:18;3.25;;;2.70;;
39102;SDS011;24847;48.218;16.414;2023-09-08T16:25:25;3.08;;;2.78;;
39102;SDS011;24847;48.218;16.414;2023-09-08T16:30:28;4.25;;;3.85;;
39102;SDS011;24847;48.218;16.414;2023-09-08T16:35:33;3.78;;;3.10;;
39102;SDS011;24847;48.218;16.414;2023-09-08T16:40:38;2.97;;;2.67;;
39102;SDS011;24847;48.218;16.414;2023-09-08T16:45:42;3.20;;;2.78;;
39102;SDS011;24847;48.218;16.414;2023-09-08T16:50:46;4.50;;;3.35;;
39102;SDS011;24847;48.218;16.414;2023-09-08T16:55:51;3.63;;;2.80;;
39102;SDS011;24847;48.218;16.414;2023-09-08T17:00:54;6.18;;;3.50;;
39102;SDS011;24847;48.218;16.414;2023-09-08T17:05:58;4.18;;;3.78;;
39102;SDS011;24847;48.218;16.414;2023-09-08T17:11:05;7.18;;;3.42;;
39102;SDS011;24847;48.218;16.414;2023-09-08T17:16:08;4.20;;;2.85;;
39102;SDS011;24847;48.218;16.414;2023-09-08T17:21:11;3.63;;;2.83;;
39102;SDS011;24847;48.218;16.414;2023-09-08T17:26:19;3.17;;;2.72;;
39102;SDS011;24847;48.218;16.414;2023-09-08T17:31:23;5.05;;;3.25;;
39102;SDS011;24847;48.218;16.414;2023-09-08T17:36:26;6.18;;;3.75;;
39102;SDS011;24847;48.218;16.414;2023-09-08T17:41:35;4.88;;;4.05;;
39102;SDS011;24847;48.218;16.414;2023-09-08T17:46:38;5.38;;;3.55;;
39102;SDS011;24847;48.218;16.414;2023-09-08T17:51:47;4.35;;;3.50;;
39102;SDS011;24847;48.218;16.414;2023-09-08T17:56:52;5.13;;;3.75;;
39102;SDS011;24847;48.218;16.414;2023-09-08T18:02:02;6.88;;;4.25;;
39102;SDS011;24847;48.218;16.414;2023-09-08T18:07:05;6.03;;;3.50;;
39102;SDS011;24847;48.218;16.414;2023-09-08T18:12:11;4.13;;;2.90;;
39102;SDS011;24847;48.218;16.414;2023-09-08T18:17:14;5.05;;;3.47;;
39102;SDS011;24847;48.218;16.414;2023-09-08T18:22:18;6.97;;;6.25;;
39102;SDS011;24847;48.218;16.414;2023-09-08T18:27:23;8.57;;;6.22;;
39102;SDS011;24847;48.218;16.414;2023-09-08T18:32:29;8.52;;;6.90;;
39102;SDS011;24847;48.218;16.414;2023-09-08T18:37:36;5.10;;;4.35;;
39102;SDS011;24847;48.218;16.414;2023-09-08T18:42:41;7.28;;;4.22;;
39102;SDS011;24847;48.218;16.414;2023-09-08T18:47:43;4.45;;;4.03;;
39102;SDS011;24847;48.218;16.414;2023-09-08T18:52:48;6.40;;;3.75;;
39102;SDS011;24847;48.218;16.414;2023-09-08T18:57:53;4.70;;;3.88;;
39102;SDS011;24847;48.218;16.414;2023-09-08T19:08:05;4.60;;;3.33;;
39102;SDS011;24847;48.218;16.414;2023-09-08T19:13:14;4.90;;;3.73;;
39102;SDS011;24847;48.218;16.414;2023-09-08T19:18:19;6.20;;;3.50;;
39102;SDS011;24847;48.218;16.414;2023-09-08T19:23:27;7.50;;;6.35;;
39102;SDS011;24847;48.218;16.414;2023-09-08T19:28:32;5.43;;;4.05;;
39102;SDS011;24847;48.218;16.414;2023-09-08T19:33:41;4.90;;;3.97;;
39102;SDS011;24847;48.218;16.414;2023-09-08T19:38:44;4.78;;;3.95;;
39102;SDS011;24847;48.218;16.414;2023-09-08T19:43:52;5.07;;;3.92;;
39102;SDS011;24847;48.218;16.414;2023-09-08T19:48:56;5.80;;;4.40;;
39102;SDS011;24847;48.218;16.414;2023-09-08T19:54:02;8.60;;;4.72;;
39102;SDS011;24847;48.218;16.414;2023-09-08T19:59:11;4.30;;;3.80;;
39102;SDS011;24847;48.218;16.414;2023-09-08T20:04:18;5.78;;;4.18;;
39102;SDS011;24847;48.218;16.414;2023-09-08T20:09:22;4.65;;;3.90;;
39102;SDS011;24847;48.218;16.414;2023-09-08T20:14:28;6.18;;;5.13;;
39102;SDS011;24847;48.218;16.414;2023-09-08T20:19:32;6.32;;;5.25;;
39102;SDS011;24847;48.218;16.414;2023-09-08T20:24:35;4.85;;;4.40;;
39102;SDS011;24847;48.218;16.414;2023-09-08T20:29:44;6.00;;;4.20;;
39102;SDS011;24847;48.218;16.414;2023-09-08T20:34:54;4.10;;;3.70;;
39102;SDS011;24847;48.218;16.414;2023-09-08T20:40:01;6.47;;;3.88;;
39102;SDS011;24847;48.218;16.414;2023-09-08T20:45:07;5.45;;;4.55;;
39102;SDS011;24847;48.218;16.414;2023-09-08T20:50:12;5.13;;;4.35;;
39102;SDS011;24847;48.218;16.414;2023-09-08T20:55:16;6.85;;;4.30;;
39102;SDS011;24847;48.218;16.414;2023-09-08T21:00:22;4.95;;;4.47;;
39102;SDS011;24847;48.218;16.414;2023-09-08T21:05:25;5.65;;;4.53;;
39102;SDS011;24847;48.218;16.414;2023-09-08T21:10:28;5.50;;;4.68;;
39102;SDS011;24847;48.218;16.414;2023-09-08T21:15:34;6.20;;;4.78;;
39102;SDS011;24847;48.218;16.414;2023-09-08T21:20:37;6.20;;;5.00;;
39102;SDS011;24847;48.218;16.414;2023-09-08T21:25:40;6.10;;;4.47;;
39102;SDS011;24847;48.218;16.414;2023-09-08T21:30:44;5.18;;;4.50;;
39102;SDS011;24847;48.218;16.414;2023-09-08T21:35:49;5.97;;;4.50;;
39102;SDS011;24847;48.218;16.414;2023-09-08T21:40:51;5.10;;;4.55;;
39102;SDS011;24847;48.218;16.414;2023-09-08T21:46:02;7.57;;;4.65;;
39102;SDS011;24847;48.218;16.414;2023-09-08T21:51:07;6.25;;;4.82;;
39102;SDS011;24847;48.218;16.414;2023-09-08T21:56:10;6.57;;;5.20;;
39102;SDS011;24847;48.218;16.414;2023-09-08T22:01:14;5.78;;;4.90;;
39102;SDS011;24847;48.218;16.414;2023-09-08T22:06:16;6.75;;;5.03;;
39102;SDS011;24847;48.218;16.414;2023-09-08T22:11:18;6.53;;;5.22;;
39102;SDS011;24847;48.218;16.414;2023-09-08T22:16:22;6.13;;;4.68;;
39102;SDS011;24847;48.218;16.414;2023-09-08T22:21:24;6.32;;;4.38;;
39102;SDS011;24847;48.218;16.414;2023-09-08T22:26:26;6.43;;;4.50;;
39102;SDS011;24847;48.218;16.414;2023-09-08T22:31:30;6.82;;;4.65;;
39102;SDS011;24847;48.218;16.414;2023-09-08T22:36:33;5.55;;;4.75;;
39102;SDS011;24847;48.218;16.414;2023-09-08T22:41:39;5.03;;;4.53;;
39102;SDS011;24847;48.218;16.414;2023-09-08T22:46:42;5.63;;;4.63;;
39102;SDS011;24847;48.218;16.414;2023-09-08T22:51:45;7.45;;;5.35;;
39102;SDS011;24847;48.218;16.414;2023-09-08T22:56:47;5.70;;;4.75;;
39102;SDS011;24847;48.218;16.414;2023-09-08T23:01:50;7.20;;;5.35;;
39102;SDS011;24847;48.218;16.414;2023-09-08T23:06:53;5.18;;;4.65;;
39102;SDS011;24847;48.218;16.414;2023-09-08T23:11:55;5.13;;;4.25;;
39102;SDS011;24847;48.218;16.414;2023-09-08T23:17:00;5.82;;;4.63;;
39102;SDS011;24847;48.218;16.414;2023-09-08T23:22:02;6.22;;;4.53;;
39102;SDS011;24847;48.218;16.414;2023-09-08T23:27:05;5.07;;;4.38;;
39102;SDS011;24847;48.218;16.414;2023-09-08T23:32:09;5.63;;;4.60;;
39102;SDS011;24847;48.218;16.414;2023-09-08T23:37:13;6.40;;;4.72;;
39102;SDS011;24847;48.218;16.414;2023-09-08T23:42:16;6.45;;;4.30;;
39102;SDS011;24847;48.218;16.414;2023-09-08T23:47:20;5.90;;;4.70;;
39102;SDS011;24847;48.218;16.414;2023-09-08T23:52:22;6.20;;;4.68;;
39102;SDS011;24847;48.218;16.414;2023-09-08T23:57:25;5.32;;;4.57;;
